sensor_id;sensor_type;location;lat;lon;timestamp;pressure;altitude;pressure_sealevel;temperature;humidity
72486;BME280;60509;47.308;-122.428;2023-04-21T00:01:37;101095.54;;;16.97;23.99
72486;BME280;60509;47.308;-122.428;2023-04-21T00:04:03;101104.74;;;17.11;23.87
72486;BME280;60509;47.308;-122.428;2023-04-21T00:06:29;101100.84;;;17.04;23.63
72486;BME280;60509;47.308;-122.428;2023-04-21T00:08:55;101100.49;;;17.01;23.85
72486;BME280;60509;47.308;-122.428;2023-04-21T00:11:20;101097.61;;;16.81;23.99
72486;BME280;60509;47.308;-122.428;2023-04-21T00:13:46;101098.73;;;15.73;24.60
72486;BME280;60509;47.308;-122.428;2023-04-21T00:16:12;101102.63;;;16.52;24.05
72486;BME280;60509;47.308;-122.428;2023-04-21T00:18:38;101104.17;;;17.45;23.01
72486;BME280;60509;47.308;-122.428;2023-04-21T00:21:05;101103.02;;;17.56;23.15
72486;BME280;60509;47.308;-122.428;2023-04-21T00:23:30;101094.28;;;17.08;23.29
72486;BME280;60509;47.308;-122.428;2023-04-21T00:25:56;101081.76;;;17.13;23.43
72486;BME280;60509;47.308;-122.428;2023-04-21T00:28:23;101084.08;;;16.85;23.60
72486;BME280;60509;47.308;-122.428;2023-04-21T00:30:48;101081.23;;;16.94;23.64
72486;BME280;60509;47.308;-122.428;2023-04-21T00:33:14;101084.68;;;16.63;23.61
72486;BME280;60509;47.308;-122.428;2023-04-21T00:35:40;101082.22;;;16.85;23.65
72486;BME280;60509;47.308;-122.428;2023-04-21T00:38:06;101085.46;;;17.41;23.51
72486;BME280;60509;47.308;-122.428;2023-04-21T00:40:32;101084.43;;;16.82;23.58
72486;BME280;60509;47.308;-122.428;2023-04-21T00:42:58;101077.78;;;15.79;24.40
72486;BME280;60509;47.308;-122.428;2023-04-21T00:45:24;101071.98;;;17.17;23.65
72486;BME280;60509;47.308;-122.428;2023-04-21T00:47:50;101072.61;;;17.21;23.59
72486;BME280;60509;47.308;-122.428;2023-04-21T00:50:16;101074.24;;;17.18;23.79
72486;BME280;60509;47.308;-122.428;2023-04-21T00:52:43;101081.28;;;17.02;23.71
72486;BME280;60509;47.308;-122.428;2023-04-21T00:55:09;101080.87;;;17.22;23.46
72486;BME280;60509;47.308;-122.428;2023-04-21T00:57:35;101077.66;;;17.45;23.51
72486;BME280;60509;47.308;-122.428;2023-04-21T01:00:01;101081.26;;;17.11;23.48
72486;BME280;60509;47.308;-122.428;2023-04-21T01:02:26;101086.16;;;17.04;23.60
72486;BME280;60509;47.308;-122.428;2023-04-21T01:04:52;101079.52;;;17.01;23.56
72486;BME280;60509;47.308;-122.428;2023-04-21T01:07:18;101082.34;;;17.10;23.67
72486;BME280;60509;47.308;-122.428;2023-04-21T01:09:44;101079.73;;;16.17;23.94
72486;BME280;60509;47.308;-122.428;2023-04-21T01:12:11;101077.41;;;16.93;23.75
72486;BME280;60509;47.308;-122.428;2023-04-21T01:14:39;101075.62;;;17.00;23.16
72486;BME280;60509;47.308;-122.428;2023-04-21T01:17:02;101077.89;;;16.92;23.24
72486;BME280;60509;47.308;-122.428;2023-04-21T01:19:31;101067.62;;;16.51;23.54
72486;BME280;60509;47.308;-122.428;2023-04-21T01:21:54;101064.24;;;16.64;23.81
72486;BME280;60509;47.308;-122.428;2023-04-21T01:24:20;101060.14;;;17.11;23.84
72486;BME280;60509;47.308;-122.428;2023-04-21T01:26:46;101060.31;;;17.76;23.36
72486;BME280;60509;47.308;-122.428;2023-04-21T01:29:12;101055.08;;;16.83;23.81
72486;BME280;60509;47.308;-122.428;2023-04-21T01:31:38;101056.47;;;17.31;23.27
72486;BME280;60509;47.308;-122.428;2023-04-21T01:34:04;101054.94;;;17.36;23.53
72486;BME280;60509;47.308;-122.428;2023-04-21T01:36:30;101057.36;;;17.83;23.25
72486;BME280;60509;47.308;-122.428;2023-04-21T01:38:56;101052.67;;;17.38;23.33
72486;BME280;60509;47.308;-122.428;2023-04-21T01:41:22;101059.28;;;18.05;23.29
72486;BME280;60509;47.308;-122.428;2023-04-21T01:43:48;101054.83;;;18.01;23.19
72486;BME280;60509;47.308;-122.428;2023-04-21T01:46:14;101039.71;;;18.39;23.35
72486;BME280;60509;47.308;-122.428;2023-04-21T01:48:40;101043.71;;;18.15;23.37
72486;BME280;60509;47.308;-122.428;2023-04-21T01:51:06;101044.82;;;18.26;23.44
72486;BME280;60509;47.308;-122.428;2023-04-21T01:53:32;101052.17;;;18.10;23.33
72486;BME280;60509;47.308;-122.428;2023-04-21T01:55:57;101056.79;;;17.49;23.66
72486;BME280;60509;47.308;-122.428;2023-04-21T01:58:23;101062.51;;;17.80;23.81
72486;BME280;60509;47.308;-122.428;2023-04-21T02:00:50;101071.18;;;17.41;23.41
72486;BME280;60509;47.308;-122.428;2023-04-21T02:03:16;101085.58;;;17.53;24.00
72486;BME280;60509;47.308;-122.428;2023-04-21T02:05:41;101084.68;;;17.62;23.77
72486;BME280;60509;47.308;-122.428;2023-04-21T02:08:07;101086.94;;;17.68;23.67
72486;BME280;60509;47.308;-122.428;2023-04-21T02:10:33;101095.99;;;17.73;23.65
72486;BME280;60509;47.308;-122.428;2023-04-21T02:12:59;101096.23;;;17.75;23.43
72486;BME280;60509;47.308;-122.428;2023-04-21T02:15:25;101084.70;;;17.84;23.41
72486;BME280;60509;47.308;-122.428;2023-04-21T02:17:51;101074.38;;;17.66;23.52
72486;BME280;60509;47.308;-122.428;2023-04-21T02:20:17;101063.34;;;17.81;23.55
72486;BME280;60509;47.308;-122.428;2023-04-21T02:22:43;101064.96;;;17.76;23.52
72486;BME280;60509;47.308;-122.428;2023-04-21T02:25:09;101055.74;;;17.43;23.82
72486;BME280;60509;47.308;-122.428;2023-04-21T02:27:35;101056.34;;;17.95;24.02
72486;BME280;60509;47.308;-122.428;2023-04-21T02:30:01;101045.96;;;17.71;24.13
72486;BME280;60509;47.308;-122.428;2023-04-21T02:32:27;101046.00;;;17.38;24.29
72486;BME280;60509;47.308;-122.428;2023-04-21T02:34:53;101042.39;;;17.24;24.64
72486;BME280;60509;47.308;-122.428;2023-04-21T02:37:19;101053.98;;;17.76;24.08
72486;BME280;60509;47.308;-122.428;2023-04-21T02:39:45;101049.66;;;18.00;23.55
72486;BME280;60509;47.308;-122.428;2023-04-21T02:42:11;101051.14;;;18.14;23.43
72486;BME280;60509;47.308;-122.428;2023-04-21T02:44:37;101061.58;;;18.04;23.65
72486;BME280;60509;47.308;-122.428;2023-04-21T02:47:02;101062.10;;;17.43;24.08
72486;BME280;60509;47.308;-122.428;2023-04-21T02:49:28;101063.23;;;17.79;24.23
72486;BME280;60509;47.308;-122.428;2023-04-21T02:51:54;101061.34;;;17.32;24.22
72486;BME280;60509;47.308;-122.428;2023-04-21T02:54:20;101046.78;;;17.41;24.40
72486;BME280;60509;47.308;-122.428;2023-04-21T02:56:46;101058.62;;;17.79;24.22
72486;BME280;60509;47.308;-122.428;2023-04-21T02:59:12;101063.31;;;17.53;24.35
72486;BME280;60509;47.308;-122.428;2023-04-21T03:01:38;101059.10;;;17.77;24.07
72486;BME280;60509;47.308;-122.428;2023-04-21T03:04:04;101043.50;;;17.55;24.22
72486;BME280;60509;47.308;-122.428;2023-04-21T03:06:32;101051.79;;;17.96;23.88
72486;BME280;60509;47.308;-122.428;2023-04-21T03:08:56;101056.66;;;18.35;23.44
72486;BME280;60509;47.308;-122.428;2023-04-21T03:11:22;101069.58;;;17.92;23.67
72486;BME280;60509;47.308;-122.428;2023-04-21T03:13:48;101071.53;;;18.40;23.63
72486;BME280;60509;47.308;-122.428;2023-04-21T03:16:14;101085.91;;;17.85;24.05
72486;BME280;60509;47.308;-122.428;2023-04-21T03:18:40;101084.04;;;17.93;23.76
72486;BME280;60509;47.308;-122.428;2023-04-21T03:21:06;101083.48;;;17.91;24.02
72486;BME280;60509;47.308;-122.428;2023-04-21T03:23:32;101090.25;;;17.71;24.06
72486;BME280;60509;47.308;-122.428;2023-04-21T03:25:58;101095.16;;;17.88;24.03
72486;BME280;60509;47.308;-122.428;2023-04-21T03:28:24;101095.94;;;17.36;24.15
72486;BME280;60509;47.308;-122.428;2023-04-21T03:30:50;101097.50;;;17.86;24.12
72486;BME280;60509;47.308;-122.428;2023-04-21T03:33:16;101107.44;;;17.61;23.95
72486;BME280;60509;47.308;-122.428;2023-04-21T03:35:42;101107.49;;;16.73;24.39
72486;BME280;60509;47.308;-122.428;2023-04-21T03:38:08;101108.72;;;17.89;23.72
72486;BME280;60509;47.308;-122.428;2023-04-21T03:40:34;101103.01;;;17.43;23.88
72486;BME280;60509;47.308;-122.428;2023-04-21T03:43:00;101092.89;;;17.35;24.21
72486;BME280;60509;47.308;-122.428;2023-04-21T03:45:26;101099.45;;;17.76;23.90
72486;BME280;60509;47.308;-122.428;2023-04-21T03:47:53;101091.48;;;17.50;24.34
72486;BME280;60509;47.308;-122.428;2023-04-21T03:50:18;101089.50;;;18.23;24.09
72486;BME280;60509;47.308;-122.428;2023-04-21T03:52:44;101094.45;;;18.17;24.24
72486;BME280;60509;47.308;-122.428;2023-04-21T03:55:10;101095.72;;;17.50;24.44
72486;BME280;60509;47.308;-122.428;2023-04-21T03:57:36;101099.37;;;17.57;24.36
72486;BME280;60509;47.308;-122.428;2023-04-21T04:00:02;101105.12;;;17.59;24.54
72486;BME280;60509;47.308;-122.428;2023-04-21T04:02:28;101106.50;;;17.99;24.24
72486;BME280;60509;47.308;-122.428;2023-04-21T04:04:53;101112.10;;;18.66;23.66
72486;BME280;60509;47.308;-122.428;2023-04-21T04:07:19;101106.61;;;17.98;23.74
72486;BME280;60509;47.308;-122.428;2023-04-21T04:09:45;101108.78;;;17.94;24.16
72486;BME280;60509;47.308;-122.428;2023-04-21T04:12:11;101103.08;;;17.92;24.41
72486;BME280;60509;47.308;-122.428;2023-04-21T04:14:37;101102.00;;;17.89;24.57
72486;BME280;60509;47.308;-122.428;2023-04-21T04:17:03;101104.67;;;17.90;24.50
72486;BME280;60509;47.308;-122.428;2023-04-21T04:19:31;101106.12;;;17.86;24.30
72486;BME280;60509;47.308;-122.428;2023-04-21T04:21:57;101101.94;;;18.11;24.40
72486;BME280;60509;47.308;-122.428;2023-04-21T04:24:21;101108.27;;;18.10;24.41
72486;BME280;60509;47.308;-122.428;2023-04-21T04:26:47;101110.08;;;17.87;24.63
72486;BME280;60509;47.308;-122.428;2023-04-21T04:29:13;101113.61;;;17.44;24.80
72486;BME280;60509;47.308;-122.428;2023-04-21T04:31:39;101116.94;;;17.74;24.47
72486;BME280;60509;47.308;-122.428;2023-04-21T04:34:13;101122.06;;;18.55;23.82
72486;BME280;60509;47.308;-122.428;2023-04-21T04:36:31;101129.74;;;18.25;23.70
72486;BME280;60509;47.308;-122.428;2023-04-21T04:38:57;101138.06;;;17.86;24.05
72486;BME280;60509;47.308;-122.428;2023-04-21T04:41:23;101142.38;;;17.92;24.18
72486;BME280;60509;47.308;-122.428;2023-04-21T04:43:49;101157.41;;;17.82;24.25
72486;BME280;60509;47.308;-122.428;2023-04-21T04:46:15;101163.65;;;17.93;24.33
72486;BME280;60509;47.308;-122.428;2023-04-21T04:48:41;101168.80;;;17.89;24.30
72486;BME280;60509;47.308;-122.428;2023-04-21T04:51:07;101174.76;;;17.78;24.21
72486;BME280;60509;47.308;-122.428;2023-04-21T04:53:34;101169.35;;;17.40;24.33
72486;BME280;60509;47.308;-122.428;2023-04-21T04:56:00;101168.36;;;17.68;24.18
72486;BME280;60509;47.308;-122.428;2023-04-21T04:58:25;101172.99;;;18.10;23.91
72486;BME280;60509;47.308;-122.428;2023-04-21T05:00:51;101170.48;;;17.09;24.37
72486;BME280;60509;47.308;-122.428;2023-04-21T05:03:17;101175.76;;;17.70;23.97
72486;BME280;60509;47.308;-122.428;2023-04-21T05:05:43;101180.30;;;17.98;23.47
72486;BME280;60509;47.308;-122.428;2023-04-21T05:08:09;101191.20;;;17.95;23.46
72486;BME280;60509;47.308;-122.428;2023-04-21T05:10:35;101196.28;;;17.79;23.58
72486;BME280;60509;47.308;-122.428;2023-04-21T05:13:01;101203.98;;;17.72;23.67
72486;BME280;60509;47.308;-122.428;2023-04-21T05:15:26;101207.94;;;17.33;23.74
72486;BME280;60509;47.308;-122.428;2023-04-21T05:17:53;101216.54;;;17.37;23.76
72486;BME280;60509;47.308;-122.428;2023-04-21T05:20:18;101219.87;;;17.38;23.62
72486;BME280;60509;47.308;-122.428;2023-04-21T05:22:44;101220.05;;;17.55;23.58
72486;BME280;60509;47.308;-122.428;2023-04-21T05:25:11;101213.16;;;17.66;23.49
72486;BME280;60509;47.308;-122.428;2023-04-21T05:27:36;101211.28;;;17.57;23.51
72486;BME280;60509;47.308;-122.428;2023-04-21T05:30:02;101205.72;;;18.07;23.01
72486;BME280;60509;47.308;-122.428;2023-04-21T05:32:28;101206.82;;;18.03;23.11
72486;BME280;60509;47.308;-122.428;2023-04-21T05:34:54;101209.34;;;17.84;23.32
72486;BME280;60509;47.308;-122.428;2023-04-21T05:37:20;101215.74;;;17.65;23.35
72486;BME280;60509;47.308;-122.428;2023-04-21T05:39:46;101221.07;;;17.68;23.29
72486;BME280;60509;47.308;-122.428;2023-04-21T05:42:12;101221.88;;;17.45;23.43
72486;BME280;60509;47.308;-122.428;2023-04-21T05:44:38;101224.69;;;17.65;23.35
72486;BME280;60509;47.308;-122.428;2023-04-21T05:47:04;101225.53;;;17.18;23.47
72486;BME280;60509;47.308;-122.428;2023-04-21T05:49:30;101225.29;;;17.67;23.21
72486;BME280;60509;47.308;-122.428;2023-04-21T05:51:56;101226.48;;;17.49;23.04
72486;BME280;60509;47.308;-122.428;2023-04-21T05:54:22;101228.24;;;17.74;22.78
72486;BME280;60509;47.308;-122.428;2023-04-21T05:56:47;101231.65;;;17.98;22.90
72486;BME280;60509;47.308;-122.428;2023-04-21T05:59:13;101233.23;;;17.93;23.02
72486;BME280;60509;47.308;-122.428;2023-04-21T06:01:40;101237.97;;;17.75;23.02
72486;BME280;60509;47.308;-122.428;2023-04-21T06:04:06;101238.76;;;17.05;23.03
72486;BME280;60509;47.308;-122.428;2023-04-21T06:06:31;101242.41;;;17.25;23.12
72486;BME280;60509;47.308;-122.428;2023-04-21T06:08:57;101245.08;;;16.80;23.38
72486;BME280;60509;47.308;-122.428;2023-04-21T06:11:23;101247.21;;;17.54;23.03
72486;BME280;60509;47.308;-122.428;2023-04-21T06:13:53;101248.73;;;17.42;23.10
72486;BME280;60509;47.308;-122.428;2023-04-21T06:16:15;101250.99;;;17.36;22.88
72486;BME280;60509;47.308;-122.428;2023-04-21T06:18:42;101252.84;;;17.96;22.79
72486;BME280;60509;47.308;-122.428;2023-04-21T06:21:07;101254.51;;;17.68;23.08
72486;BME280;60509;47.308;-122.428;2023-04-21T06:23:33;101263.91;;;17.41;23.09
72486;BME280;60509;47.308;-122.428;2023-04-21T06:26:00;101263.40;;;17.18;23.13
72486;BME280;60509;47.308;-122.428;2023-04-21T06:28:25;101259.57;;;16.89;23.30
72486;BME280;60509;47.308;-122.428;2023-04-21T06:30:51;101260.41;;;16.75;23.38
72486;BME280;60509;47.308;-122.428;2023-04-21T06:33:17;101263.46;;;16.55;23.18
72486;BME280;60509;47.308;-122.428;2023-04-21T06:35:43;101260.21;;;17.19;23.03
72486;BME280;60509;47.308;-122.428;2023-04-21T06:38:09;101252.54;;;17.98;22.71
72486;BME280;60509;47.308;-122.428;2023-04-21T06:40:35;101263.31;;;17.58;22.72
72486;BME280;60509;47.308;-122.428;2023-04-21T06:43:01;101269.16;;;17.80;22.60
72486;BME280;60509;47.308;-122.428;2023-04-21T06:45:27;101277.74;;;17.54;22.94
72486;BME280;60509;47.308;-122.428;2023-04-21T06:47:53;101278.12;;;17.28;22.87
72486;BME280;60509;47.308;-122.428;2023-04-21T06:50:19;101288.04;;;16.78;23.19
72486;BME280;60509;47.308;-122.428;2023-04-21T06:52:45;101294.61;;;17.03;23.01
72486;BME280;60509;47.308;-122.428;2023-04-21T06:55:11;101309.08;;;17.10;23.05
72486;BME280;60509;47.308;-122.428;2023-04-21T06:57:37;101312.98;;;17.14;22.98
72486;BME280;60509;47.308;-122.428;2023-04-21T07:00:03;101314.17;;;17.44;22.92
72486;BME280;60509;47.308;-122.428;2023-04-21T07:02:28;101316.40;;;18.11;22.48
72486;BME280;60509;47.308;-122.428;2023-04-21T07:04:54;101318.03;;;18.18;22.82
72486;BME280;60509;47.308;-122.428;2023-04-21T07:07:21;101321.19;;;18.04;22.76
72486;BME280;60509;47.308;-122.428;2023-04-21T07:09:47;101323.42;;;17.23;22.86
72486;BME280;60509;47.308;-122.428;2023-04-21T07:12:12;101327.33;;;17.66;22.81
72486;BME280;60509;47.308;-122.428;2023-04-21T07:14:39;101328.92;;;17.54;23.17
72486;BME280;60509;47.308;-122.428;2023-04-21T07:17:05;101334.74;;;17.39;23.11
72486;BME280;60509;47.308;-122.428;2023-04-21T07:19:30;101342.41;;;17.53;23.29
72486;BME280;60509;47.308;-122.428;2023-04-21T07:21:56;101344.93;;;17.39;23.19
72486;BME280;60509;47.308;-122.428;2023-04-21T07:24:22;101353.32;;;17.71;23.45
72486;BME280;60509;47.308;-122.428;2023-04-21T07:26:48;101360.52;;;17.19;23.36
72486;BME280;60509;47.308;-122.428;2023-04-21T07:29:14;101362.00;;;17.71;22.88
72486;BME280;60509;47.308;-122.428;2023-04-21T07:31:40;101367.86;;;17.53;22.92
72486;BME280;60509;47.308;-122.428;2023-04-21T07:34:06;101377.01;;;17.82;23.02
72486;BME280;60509;47.308;-122.428;2023-04-21T07:36:32;101374.96;;;17.23;23.21
72486;BME280;60509;47.308;-122.428;2023-04-21T07:38:58;101375.84;;;17.60;23.29
72486;BME280;60509;47.308;-122.428;2023-04-21T07:41:24;101381.91;;;17.40;23.35
72486;BME280;60509;47.308;-122.428;2023-04-21T07:43:50;101381.20;;;17.67;23.37
72486;BME280;60509;47.308;-122.428;2023-04-21T07:46:16;101386.46;;;17.81;23.26
72486;BME280;60509;47.308;-122.428;2023-04-21T07:48:42;101389.23;;;17.17;23.61
72486;BME280;60509;47.308;-122.428;2023-04-21T07:51:08;101392.43;;;17.44;23.43
72486;BME280;60509;47.308;-122.428;2023-04-21T07:53:34;101399.03;;;17.85;22.86
72486;BME280;60509;47.308;-122.428;2023-04-21T07:56:00;101402.45;;;17.76;22.87
72486;BME280;60509;47.308;-122.428;2023-04-21T07:58:25;101407.63;;;17.52;23.06
72486;BME280;60509;47.308;-122.428;2023-04-21T08:00:52;101409.82;;;17.32;23.19
72486;BME280;60509;47.308;-122.428;2023-04-21T08:03:17;101406.80;;;17.64;23.09
72486;BME280;60509;47.308;-122.428;2023-04-21T08:05:43;101409.47;;;17.12;23.11
72486;BME280;60509;47.308;-122.428;2023-04-21T08:08:09;101413.63;;;17.47;23.00
72486;BME280;60509;47.308;-122.428;2023-04-21T08:10:35;101413.00;;;17.61;22.99
72486;BME280;60509;47.308;-122.428;2023-04-21T08:13:01;101414.05;;;16.86;23.52
72486;BME280;60509;47.308;-122.428;2023-04-21T08:15:27;101416.33;;;17.21;23.32
72486;BME280;60509;47.308;-122.428;2023-04-21T08:17:53;101418.13;;;17.99;22.83
72486;BME280;60509;47.308;-122.428;2023-04-21T08:20:19;101416.15;;;18.01;22.67
72486;BME280;60509;47.308;-122.428;2023-04-21T08:22:45;101419.56;;;18.02;22.76
72486;BME280;60509;47.308;-122.428;2023-04-21T08:25:11;101419.57;;;17.55;22.93
72486;BME280;60509;47.308;-122.428;2023-04-21T08:27:38;101423.27;;;17.71;22.91
72486;BME280;60509;47.308;-122.428;2023-04-21T08:30:04;101424.95;;;17.68;22.82
72486;BME280;60509;47.308;-122.428;2023-04-21T08:32:29;101427.73;;;17.58;22.85
72486;BME280;60509;47.308;-122.428;2023-04-21T08:34:55;101433.82;;;17.61;22.99
72486;BME280;60509;47.308;-122.428;2023-04-21T08:37:21;101439.68;;;17.47;23.08
72486;BME280;60509;47.308;-122.428;2023-04-21T08:39:47;101437.25;;;17.53;22.95
72486;BME280;60509;47.308;-122.428;2023-04-21T08:42:13;101443.28;;;17.28;22.38
72486;BME280;60509;47.308;-122.428;2023-04-21T08:44:39;101444.13;;;17.91;22.31
72486;BME280;60509;47.308;-122.428;2023-04-21T08:47:06;101450.67;;;17.38;22.64
72486;BME280;60509;47.308;-122.428;2023-04-21T08:49:32;101453.90;;;17.87;22.77
72486;BME280;60509;47.308;-122.428;2023-04-21T08:51:59;101460.43;;;17.91;22.76
72486;BME280;60509;47.308;-122.428;2023-04-21T08:54:23;101460.47;;;17.35;22.99
72486;BME280;60509;47.308;-122.428;2023-04-21T08:56:49;101470.47;;;17.16;22.92
72486;BME280;60509;47.308;-122.428;2023-04-21T08:59:15;101472.48;;;17.50;22.95
72486;BME280;60509;47.308;-122.428;2023-04-21T09:02:14;101476.61;;;17.49;22.82
72486;BME280;60509;47.308;-122.428;2023-04-21T09:04:23;101476.92;;;17.94;22.55
72486;BME280;60509;47.308;-122.428;2023-04-21T09:06:40;101483.80;;;17.96;22.52
72486;BME280;60509;47.308;-122.428;2023-04-21T09:09:01;101491.96;;;17.70;22.65
72486;BME280;60509;47.308;-122.428;2023-04-21T09:11:26;101498.07;;;17.65;22.79
72486;BME280;60509;47.308;-122.428;2023-04-21T09:13:53;101498.13;;;17.52;22.78
72486;BME280;60509;47.308;-122.428;2023-04-21T09:16:19;101505.54;;;17.42;22.92
72486;BME280;60509;47.308;-122.428;2023-04-21T09:18:43;101511.89;;;17.35;22.79
72486;BME280;60509;47.308;-122.428;2023-04-21T09:21:11;101513.39;;;17.29;22.83
72486;BME280;60509;47.308;-122.428;2023-04-21T09:23:41;101517.98;;;17.27;22.94
72486;BME280;60509;47.308;-122.428;2023-04-21T09:26:02;101518.60;;;17.65;22.60
72486;BME280;60509;47.308;-122.428;2023-04-21T09:28:31;101528.62;;;18.17;22.35
72486;BME280;60509;47.308;-122.428;2023-04-21T09:30:55;101526.91;;;18.16;22.41
72486;BME280;60509;47.308;-122.428;2023-04-21T09:33:19;101527.03;;;17.53;22.64
72486;BME280;60509;47.308;-122.428;2023-04-21T09:35:45;101527.64;;;17.53;22.62
72486;BME280;60509;47.308;-122.428;2023-04-21T09:38:12;101531.82;;;17.60;22.57
72486;BME280;60509;47.308;-122.428;2023-04-21T09:40:37;101537.27;;;17.49;22.66
72486;BME280;60509;47.308;-122.428;2023-04-21T09:43:03;101541.14;;;17.19;22.66
72486;BME280;60509;47.308;-122.428;2023-04-21T09:45:29;101546.31;;;16.93;22.96
72486;BME280;60509;47.308;-122.428;2023-04-21T09:47:57;101547.40;;;17.45;22.79
72486;BME280;60509;47.308;-122.428;2023-04-21T09:50:22;101549.39;;;18.29;22.28
72486;BME280;60509;47.308;-122.428;2023-04-21T09:52:48;101554.49;;;17.86;22.35
72486;BME280;60509;47.308;-122.428;2023-04-21T09:55:13;101558.03;;;17.49;22.55
72486;BME280;60509;47.308;-122.428;2023-04-21T09:57:41;101558.17;;;17.66;22.56
72486;BME280;60509;47.308;-122.428;2023-04-21T10:00:07;101558.83;;;17.47;22.60
72486;BME280;60509;47.308;-122.428;2023-04-21T10:02:31;101563.59;;;17.24;22.67
72486;BME280;60509;47.308;-122.428;2023-04-21T10:04:56;101567.01;;;17.42;22.71
72486;BME280;60509;47.308;-122.428;2023-04-21T10:07:22;101569.02;;;17.09;22.77
72486;BME280;60509;47.308;-122.428;2023-04-21T10:09:51;101565.90;;;17.53;22.71
72486;BME280;60509;47.308;-122.428;2023-04-21T10:12:14;101565.61;;;17.48;22.58
72486;BME280;60509;47.308;-122.428;2023-04-21T10:14:40;101571.36;;;17.95;22.27
72486;BME280;60509;47.308;-122.428;2023-04-21T10:17:08;101570.90;;;17.68;22.41
72486;BME280;60509;47.308;-122.428;2023-04-21T10:19:34;101574.90;;;17.54;22.35
72486;BME280;60509;47.308;-122.428;2023-04-21T10:21:58;101574.98;;;17.16;22.56
72486;BME280;60509;47.308;-122.428;2023-04-21T10:24:28;101573.87;;;17.26;22.59
72486;BME280;60509;47.308;-122.428;2023-04-21T10:26:51;101573.78;;;17.25;22.63
72486;BME280;60509;47.308;-122.428;2023-04-21T10:29:28;101581.21;;;16.79;22.67
72486;BME280;60509;47.308;-122.428;2023-04-21T10:32:03;101578.59;;;17.38;22.51
72486;BME280;60509;47.308;-122.428;2023-04-21T10:34:29;101582.37;;;16.65;22.49
72486;BME280;60509;47.308;-122.428;2023-04-21T10:36:34;101585.93;;;17.59;22.21
72486;BME280;60509;47.308;-122.428;2023-04-21T10:39:01;101585.66;;;17.98;21.96
72486;BME280;60509;47.308;-122.428;2023-04-21T10:41:27;101590.14;;;17.58;22.15
72486;BME280;60509;47.308;-122.428;2023-04-21T10:43:51;101593.75;;;17.39;22.31
72486;BME280;60509;47.308;-122.428;2023-04-21T10:46:34;101596.06;;;17.09;22.49
72486;BME280;60509;47.308;-122.428;2023-04-21T10:48:52;101601.63;;;17.22;22.40
72486;BME280;60509;47.308;-122.428;2023-04-21T10:51:10;101605.45;;;17.16;22.54
72486;BME280;60509;47.308;-122.428;2023-04-21T10:53:42;101606.84;;;16.94;22.63
72486;BME280;60509;47.308;-122.428;2023-04-21T10:56:02;101610.13;;;17.20;22.48
72486;BME280;60509;47.308;-122.428;2023-04-21T10:58:28;101610.86;;;17.25;22.44
72486;BME280;60509;47.308;-122.428;2023-04-21T11:00:53;101615.58;;;17.87;22.17
72486;BME280;60509;47.308;-122.428;2023-04-21T11:03:19;101617.37;;;17.83;22.15
72486;BME280;60509;47.308;-122.428;2023-04-21T11:05:45;101618.77;;;17.49;22.27
72486;BME280;60509;47.308;-122.428;2023-04-21T11:08:13;101624.24;;;17.18;22.32
72486;BME280;60509;47.308;-122.428;2023-04-21T11:10:54;101627.50;;;17.35;22.39
72486;BME280;60509;47.308;-122.428;2023-04-21T11:13:03;101631.33;;;17.23;22.37
72486;BME280;60509;47.308;-122.428;2023-04-21T11:15:29;101631.98;;;17.26;22.45
72486;BME280;60509;47.308;-122.428;2023-04-21T11:17:55;101640.36;;;17.10;22.50
72486;BME280;60509;47.308;-122.428;2023-04-21T11:20:21;101642.25;;;17.38;22.41
72486;BME280;60509;47.308;-122.428;2023-04-21T11:22:51;101643.02;;;17.44;22.29
72486;BME280;60509;47.308;-122.428;2023-04-21T11:25:17;101649.99;;;17.70;22.12
72486;BME280;60509;47.308;-122.428;2023-04-21T11:27:39;101651.01;;;17.36;22.19
72486;BME280;60509;47.308;-122.428;2023-04-21T11:30:06;101653.41;;;17.46;22.22
72486;BME280;60509;47.308;-122.428;2023-04-21T11:32:31;101654.32;;;17.32;22.37
72486;BME280;60509;47.308;-122.428;2023-04-21T11:34:57;101655.16;;;17.05;22.52
72486;BME280;60509;47.308;-122.428;2023-04-21T11:37:25;101655.01;;;17.05;22.48
72486;BME280;60509;47.308;-122.428;2023-04-21T11:39:49;101655.32;;;16.50;22.84
72486;BME280;60509;47.308;-122.428;2023-04-21T11:42:20;101656.04;;;16.89;22.39
72486;BME280;60509;47.308;-122.428;2023-04-21T11:44:41;101648.91;;;17.65;22.22
72486;BME280;60509;47.308;-122.428;2023-04-21T11:47:15;101648.56;;;17.63;22.29
72486;BME280;60509;47.308;-122.428;2023-04-21T11:49:32;101645.30;;;17.71;22.15
72486;BME280;60509;47.308;-122.428;2023-04-21T11:51:58;101651.91;;;17.64;22.16
72486;BME280;60509;47.308;-122.428;2023-04-21T11:54:24;101654.74;;;16.61;22.58
72486;BME280;60509;47.308;-122.428;2023-04-21T11:56:51;101654.62;;;17.14;22.41
72486;BME280;60509;47.308;-122.428;2023-04-21T11:59:18;101656.65;;;16.77;22.53
72486;BME280;60509;47.308;-122.428;2023-04-21T12:01:43;101655.75;;;16.83;22.53
72486;BME280;60509;47.308;-122.428;2023-04-21T12:04:14;101651.40;;;17.35;22.31
72486;BME280;60509;47.308;-122.428;2023-04-21T12:06:37;101652.18;;;17.54;22.24
72486;BME280;60509;47.308;-122.428;2023-04-21T12:09:01;101652.31;;;17.36;22.08
72486;BME280;60509;47.308;-122.428;2023-04-21T12:11:27;101652.70;;;17.44;22.21
72486;BME280;60509;47.308;-122.428;2023-04-21T12:13:54;101655.43;;;17.40;22.21